ADDS METAR Data INFO
IDs: Format: Raw Decoded Include TAF

Data at: 1926 UTC 19 Jul 2018

KDXX 191915Z AUTO 25010KT 10SM SCT023 SCT060 27/21 A2964 RMK AO2
KDXX 191855Z AUTO 25011G16KT 10SM SCT023 BKN035 BKN055 26/20 A2964 RMK AO2
KDXX 191835Z AUTO 29011KT 10SM SCT026 SCT033 27/19 A2965 RMK AO2
KDXX 191815Z AUTO 31008KT 10SM SCT024 BKN032 26/19 A2965 RMK AO2
KDXX 191755Z AUTO 31009G15KT 10SM SCT024 SCT030 27/20 A2966 RMK AO2
KDXX 191735Z AUTO 30011G15KT 10SM SCT024 BKN031 27/19 A2966 RMK AO2
KDXX 191715Z AUTO 28010KT 10SM SCT025 BKN030 26/19 A2967 RMK AO2
KDXX 191655Z AUTO 29012KT 10SM SCT027 26/19 A2967 RMK AO2
KDXX 191635Z AUTO 29010KT 10SM SCT016 BKN025 25/19 A2967 RMK AO2
KDXX 191615Z AUTO 28013KT 10SM SCT014 OVC025 24/20 A2967 RMK AO2
KDXX 191555Z AUTO 27012G15KT 10SM SCT014 BKN023 24/20 A2967 RMK AO2
KDXX 191535Z AUTO 26012G16KT 10SM SCT014 BKN021 24/20 A2967 RMK AO2
KDXX 191515Z AUTO 27010G16KT 10SM SCT014 BKN019 24/21 A2968 RMK AO2
KDXX 191455Z AUTO 27010KT 10SM SCT009 BKN013 23/23 A2968 RMK AO2
KDXX 191435Z AUTO 26009KT 10SM SCT007 BKN014 23/23 A2968 RMK AO2
KDXX 191415Z AUTO 21005KT 10SM BKN007 BKN014 BKN023 22/22 A2968 RMK AO2
KDXX 191355Z AUTO 22006KT 10SM BKN009 BKN023 22/22 A2968 RMK AO2
KDXX 191335Z AUTO 22007KT 10SM BKN009 OVC014 22/22 A2969 RMK AO2
KDXX 191315Z AUTO 10SM SCT015 BKN020 OVC028 22/22 A2969 RMK AO2
KDXX 191255Z AUTO 19006KT 10SM SCT018 BKN024 BKN030 22/22 A2969 RMK AO2
KDXX 191235Z AUTO 17004KT 10SM SCT006 BKN022 OVC029 22/22 A2970 RMK AO2
KDXX 191215Z AUTO 14008KT 10SM SCT010 BKN021 OVC030 22/22 A2970 RMK AO2
KDXX 191155Z AUTO 10SM -RA BKN010 BKN019 OVC036 22/22 A2971 RMK AO2 P0001
KDXX 191135Z AUTO 12009KT 10SM VCTSRA SCT008 BKN012 OVC017 21/21 A2972 RMK AO2 P0005
KDXX 191115Z AUTO 10010KT 10SM RA BKN013 BKN024 OVC035 21/21 A2972 RMK AO2 P0008
KDXX 191058Z AUTO 21/21 A2973 RMK AO2 LTG DSNT NE P0002
KDXX 191035Z AUTO 13008KT 10SM RA SCT014 OVC020 22/22 A2974 RMK AO2 P0003
KDXX 191015Z AUTO 11000KT 10SM RA SCT016 BKN022 BKN048 22/22 A2975 RMK AO2 P0002
KDXX 190955Z AUTO 11004KT 10SM -RA SCT016 BKN033 OVC055 22/22 A2976 RMK AO2 P0003
KDXX 190935Z AUTO 13005KT 10SM -RA SCT025 SCT039 BKN050 22/22 A2978 RMK AO2 LTG DSNT SE P0002
KDXX 190915Z AUTO 13004KT 10SM RA SCT027 BKN038 OVC065 22/22 A2979 RMK AO2 P0005
KDXX 190855Z AUTO 14004KT 10SM RA SCT027 BKN032 OVC049 22/22 A2979 RMK AO2 P0004
KDXX 190835Z AUTO 13006KT 10SM -RA SCT006 BKN027 OVC044 22/22 A2980 RMK AO2 P0004
KDXX 190815Z AUTO 14009KT 7SM +RA SCT008 BKN017 OVC055 22/22 A2980 RMK AO2 LTG DSNT S P0032
KDXX 190755Z AUTO 14007KT 10SM SCT033 BKN043 OVC085 23/19 A2981 RMK AO2 LTG DSNT S
KDXX 190735Z AUTO 12007KT 10SM SCT043 SCT050 BKN070 23/19 A2981 RMK AO2 LTG DSNT S AND NW
KDXX 190715Z AUTO 13007KT 10SM SCT050 SCT060 SCT080 23/19 A2982 RMK AO2 LTG DSNT SW
KDXX 190655Z AUTO 14007KT 10SM SCT060 BKN065 23/19 A2983 RMK AO2
KDXX 190635Z AUTO 14008KT 10SM SCT060 BKN065 BKN080 23/19 A2984 RMK AO2
KDXX 190615Z AUTO 13008KT 10SM SCT060 SCT070 SCT080 23/19 A2984 RMK AO2
KDXX 190555Z AUTO 13008KT 10SM SCT070 BKN080 23/19 A2985 RMK AO2 LTG DSNT SW
KDXX 190535Z AUTO 14007KT 10SM SCT065 BKN085 120 22/19 A2987 RMK AO2 LTG DSNT SW AND W
KDXX 190515Z AUTO 15006KT 10SM SCT120 22/19 A2987 RMK AO2
KDXX 190455Z AUTO 13006KT 10SM SCT055 22/19 A2988 RMK AO2
KDXX 190435Z AUTO 16004KT 10SM SCT055 SCT065 22/21 A2989 RMK AO2
KDXX 190415Z AUTO 16004KT 10SM SCT065 22/19 A2989 RMK AO2
KDXX 190355Z AUTO 13004KT 10SM SCT065 23/19 A2989 RMK AO2
KDXX 190335Z AUTO 13006KT 10SM SCT090 23/19 A2989 RMK AO2
KDXX 190315Z AUTO 17007KT 10SM SCT090 23/19 A2990 RMK AO2
KDXX 190255Z AUTO 13006KT 10SM CLR 24/19 A2989 RMK AO2
KDXX 190235Z AUTO 13006KT 10SM SCT065 25/19 A2989 RMK AO2
KDXX 190215Z AUTO 13006KT 10SM BKN065 BKN075 25/18 A2990 RMK AO2
KDXX 190155Z AUTO 14005KT 10SM SCT065 25/18 A2990 RMK AO2
KDXX 190135Z AUTO 13006KT 10SM CLR 26/18 A2990 RMK AO2
KDXX 190115Z AUTO 14006KT 10SM CLR 26/18 A2991 RMK AO2
KDXX 190055Z AUTO 13007KT 10SM CLR 26/18 A2991 RMK AO2 LTG DSNT S AND NW
KDXX 190035Z AUTO 13006KT 10SM CLR 27/17 A2992 RMK AO2
KDXX 190015Z AUTO 14008KT 10SM CLR 27/17 A2992 RMK AO2
KDXX 182355Z AUTO 14009KT 10SM CLR 29/18 A2992 RMK AO2
KDXX 182335Z AUTO 14009KT 10SM CLR 29/18 A2992 RMK AO2
KDXX 182315Z AUTO 14010G14KT 10SM CLR 30/17 A2992 RMK AO2
KDXX 182255Z AUTO 13009KT 10SM CLR 30/19 A2994 RMK AO2
KDXX 182235Z AUTO 13006KT 10SM CLR 28/19 A2994 RMK AO2
KDXX 182215Z AUTO 14007KT 10SM CLR 28/18 A2995 RMK AO2
KDXX 182155Z AUTO 15008KT 10SM CLR 28/19 A2996 RMK AO2
KDXX 182135Z AUTO 15009KT 10SM CLR 29/18 A2996 RMK AO2
KDXX 182115Z AUTO 15013KT 10SM CLR 30/18 A2997 RMK AO2
KDXX 182055Z AUTO 14006KT 10SM CLR 29/19 A2998 RMK AO2
KDXX 182035Z AUTO 15009KT 10SM CLR 29/19 A2999 RMK AO2
KDXX 182015Z AUTO 13009KT 10SM CLR 30/18 A3000 RMK AO2
KDXX 181955Z AUTO 16008KT 10SM CLR 29/18 A3000 RMK AO2
KDXX 181935Z AUTO 17009KT 10SM CLR 29/19 A3001 RMK AO2
KDXX 181915Z AUTO 17008KT 10SM SCT031 29/19 A3001 RMK AO2
KDXX 181855Z AUTO 14007KT 10SM CLR 28/21 A3001 RMK AO2
KDXX 181835Z AUTO 14008KT 10SM CLR 29/21 A3001 RMK AO2
KDXX 181815Z AUTO 15004KT 10SM CLR 28/20 A3002 RMK AO2
KDXX 181755Z AUTO 12006KT 10SM CLR 28/20 A3002 RMK AO2
KDXX 181735Z AUTO 14006KT 10SM CLR 27/20 A3003 RMK AO2
KDXX 181715Z AUTO 12006KT 10SM CLR 27/20 A3004 RMK AO2
KDXX 181655Z AUTO 14005KT 10SM CLR 27/19 A3004 RMK AO2
KDXX 181635Z AUTO 13006KT 10SM CLR 27/20 A3005 RMK AO2
KDXX 181615Z AUTO 12005KT 10SM CLR 27/19 A3005 RMK AO2
KDXX 181555Z AUTO 13005KT 10SM CLR 26/19 A3005 RMK AO2
KDXX 181535Z AUTO 13005KT 10SM CLR 26/19 A3005 RMK AO2
KDXX 181515Z AUTO 15004KT 10SM CLR 26/19 A3005 RMK AO2
KDXX 181455Z AUTO 15004KT 10SM CLR 25/19 A3005 RMK AO2
KDXX 181435Z AUTO 15004KT 10SM CLR 24/19 A3005 RMK AO2
KDXX 181415Z AUTO 15004KT 10SM CLR 24/19 A3005 RMK AO2
KDXX 181355Z AUTO 17003KT 10SM CLR 23/19 A3007 RMK AO2
KDXX 181335Z AUTO 18003KT 10SM CLR 22/19 A3007 RMK AO2
KDXX 181315Z AUTO 17003KT 10SM SCT075 21/19 A3007 RMK AO2
KDXX 181255Z AUTO 16005KT 10SM CLR 21/19 A3007 RMK AO2
KDXX 181235Z AUTO 16004KT 10SM SCT075 21/20 A3008 RMK AO2
KDXX 181215Z AUTO 17006KT 10SM SCT075 19/19 A3008 RMK AO2
KDXX 181155Z AUTO 15003KT 10SM SCT075 18/18 A3007 RMK AO2
KDXX 181135Z AUTO 14003KT 10SM SCT075 18/18 A3007 RMK AO2
KDXX 181115Z AUTO 11003KT 10SM SCT075 17/17 A3007 RMK AO2
KDXX 181055Z AUTO 12004KT 10SM SCT075 18/18 A3007 RMK AO2
KDXX 181035Z AUTO 16003KT 10SM SCT075 17/17 A3008 RMK AO2
KDXX 181015Z AUTO 16003KT 10SM CLR 18/18 A3008 RMK AO2
KDXX 180955Z AUTO 13006KT 10SM CLR 18/18 A3007 RMK AO2
KDXX 180935Z AUTO 12004KT 10SM SCT075 18/18 A3008 RMK AO2
KDXX 180915Z AUTO 12003KT 10SM SCT075 18/18 A3009 RMK AO2
KDXX 180855Z AUTO 13004KT 10SM CLR 18/18 A3009 RMK AO2
KDXX 180835Z AUTO 14004KT 10SM CLR 18/18 A3009 RMK AO2
KDXX 180815Z AUTO 15004KT 10SM CLR 18/18 A3009 RMK AO2
KDXX 180755Z AUTO 16004KT 10SM CLR 18/18 A3009 RMK AO2
KDXX 180735Z AUTO 16003KT 10SM CLR 18/18 A3009 RMK AO2